Time;durP1;ratioP1;P1;durP2;ratioP2;P2;SDS_P1;SDS_P2;PMS_P1;PMS_P2;Temp;Humidity;BMP_temperature;BMP_pressure;BME280_temperature;BME280_humidity;BME280_pressure;Samples;Min_cycle;Max_cycle;Signal;HPM_P1;HPM_P2
2021/09/19 00:01:10;;;;;;;2.47;2.00;;;13.60;1.00;;;;;;5055684;28;20201;-85
2021/09/19 00:03:36;;;;;;;4.20;2.10;;;;;;;;;;5057387;28;20205;-86
2021/09/19 00:06:03;;;;;;;2.43;1.80;;;13.70;1.00;;;;;;5051446;28;20531;-86
2021/09/19 00:08:29;;;;;;;2.20;2.00;;;15.00;1.00;;;;;;5045850;28;20181;-86
2021/09/19 00:10:55;;;;;;;3.20;1.90;;;13.80;1.00;;;;;;5053460;28;20186;-86
2021/09/19 00:13:21;;;;;;;1.90;1.80;;;;;;;;;;5068225;28;20561;-86
2021/09/19 00:15:47;;;;;;;1.73;1.50;;;13.70;1.00;;;;;;5049727;28;20282;-85
2021/09/19 00:18:13;;;;;;;2.53;2.33;;;;;;;;;;5054438;28;20276;-86
2021/09/19 00:20:39;;;;;;;1.53;1.43;;;;;;;;;;5060991;28;20240;-86
2021/09/19 00:23:06;;;;;;;2.53;1.80;;;13.60;1.00;;;;;;5061192;28;20218;-86
2021/09/19 00:25:32;;;;;;;1.90;1.77;;;13.50;1.00;;;;;;5079591;28;20210;-86
2021/09/19 00:27:58;;;;;;;2.33;2.00;;;13.60;1.00;;;;;;5068117;28;20181;-85
2021/09/19 00:30:23;;;;;;;2.20;2.07;;;13.50;1.00;;;;;;5061412;28;20197;-86
2021/09/19 00:32:50;;;;;;;2.20;2.00;;;;;;;;;;5050992;28;20195;-85
2021/09/19 00:35:16;;;;;;;1.60;1.50;;;;;;;;;;5060379;28;20736;-86
2021/09/19 00:37:41;;;;;;;2.33;2.13;;;13.50;1.00;;;;;;5073125;28;20232;-86
2021/09/19 00:40:08;;;;;;;2.10;1.90;;;13.50;1.00;;;;;;5061265;28;20730;-86
2021/09/19 00:42:34;;;;;;;1.93;1.80;;;13.50;1.00;;;;;;5050624;28;20186;-86
2021/09/19 00:45:06;;;;;;;3.70;1.90;;;13.50;1.00;;;;;;5058560;28;20280;-86
2021/09/19 00:47:31;;;;;;;3.70;2.47;;;13.40;1.00;;;;;;5060261;28;20242;-85
2021/09/19 00:49:57;;;;;;;2.13;1.90;;;13.50;1.00;;;;;;5048392;28;20191;-86
2021/09/19 00:52:23;;;;;;;2.53;2.33;;;13.40;1.00;;;;;;5061806;28;20208;-85
2021/09/19 00:54:50;;;;;;;3.10;2.17;;;13.50;1.00;;;;;;5058565;28;20195;-85
2021/09/19 00:57:17;;;;;;;1.93;1.73;;;13.40;1.00;;;;;;5048161;28;20568;-86
2021/09/19 00:59:48;;;;;;;1.83;1.70;;;13.40;1.00;;;;;;5057544;28;20192;-86
2021/09/19 01:02:14;;;;;;;2.83;2.10;;;13.40;1.00;;;;;;5062670;28;20306;-86
2021/09/19 01:04:40;;;;;;;2.17;1.80;;;13.30;1.00;;;;;;5062450;28;20225;-86
2021/09/19 01:07:06;;;;;;;2.77;2.13;;;13.30;1.00;;;;;;5048899;28;20181;-86
2021/09/19 01:09:33;;;;;;;2.63;1.97;;;13.30;1.00;;;;;;5066011;28;20189;-86
2021/09/19 01:11:59;;;;;;;2.53;2.33;;;;;;;;;;5047269;28;20186;-86
2021/09/19 01:14:25;;;;;;;3.10;2.10;;;;;;;;;;5050764;28;20194;-86
2021/09/19 01:16:51;;;;;;;1.80;1.70;;;13.30;1.00;;;;;;5056485;28;20195;-86
2021/09/19 01:19:21;;;;;;;3.57;2.40;;;14.50;1.00;;;;;;5054537;28;20182;-86
2021/09/19 01:21:48;;;;;;;4.60;1.87;;;13.20;1.00;;;;;;5060558;28;20685;-85
2021/09/19 01:24:14;;;;;;;3.30;2.27;;;13.20;1.00;;;;;;5059366;28;20189;-86
2021/09/19 01:26:41;;;;;;;3.80;2.10;;;13.20;1.00;;;;;;5053312;28;20617;-86
2021/09/19 01:29:07;;;;;;;3.27;2.20;;;14.50;1.00;;;;;;5071674;28;20188;-86
2021/09/19 01:31:33;;;;;;;3.53;2.07;;;13.20;1.00;;;;;;5049100;28;20203;-86
2021/09/19 01:33:59;;;;;;;1.87;1.73;;;;;;;;;;5044263;28;20215;-86
2021/09/19 01:36:25;;;;;;;2.00;1.83;;;13.10;1.00;;;;;;5053318;28;20554;-85
2021/09/19 01:38:51;;;;;;;2.40;2.20;;;13.20;1.00;;;;;;5057953;28;20196;-86
2021/09/19 01:41:21;;;;;;;3.33;2.10;;;13.10;1.00;;;;;;5064045;28;20185;-85
2021/09/19 01:43:48;;;;;;;2.40;2.20;;;13.00;1.00;;;;;;5060545;28;20263;-85
2021/09/19 01:46:16;;;;;;;3.10;1.97;;;;;;;;;;5071678;28;20205;-86
2021/09/19 01:48:42;;;;;;;2.07;1.57;;;13.10;1.00;;;;;;5054356;28;20229;-86
2021/09/19 01:51:09;;;;;;;2.73;2.30;;;13.00;1.00;;;;;;5060557;28;20277;-86
2021/09/19 01:53:36;;;;;;;2.20;2.00;;;13.00;1.00;;;;;;5056024;28;20315;-86
2021/09/19 01:56:03;;;;;;;2.13;1.83;;;13.00;1.00;;;;;;5056023;28;20214;-86
2021/09/19 01:58:28;;;;;;;4.30;2.17;;;12.90;1.00;;;;;;5058465;28;20197;-86
2021/09/19 02:01:00;;;;;;;2.20;2.00;;;12.90;1.00;;;;;;5064652;28;20185;-85
2021/09/19 02:03:25;;;;;;;3.27;2.20;;;12.90;1.00;;;;;;5060190;28;20262;-86
2021/09/19 02:05:51;;;;;;;3.97;2.00;;;12.90;1.00;;;;;;5061714;28;20594;-86
2021/09/19 02:08:17;;;;;;;2.77;2.20;;;;;;;;;;5044499;28;20214;-85
2021/09/19 02:10:43;;;;;;;2.67;2.47;;;;;;;;;;5058684;28;20172;-86
2021/09/19 02:13:09;;;;;;;2.17;1.97;;;;;;;;;;5060242;28;20197;-86
2021/09/19 02:15:35;;;;;;;6.17;2.83;;;12.80;1.00;;;;;;5041715;28;20182;-86
2021/09/19 02:18:01;;;;;;;2.30;2.10;;;14.80;1.00;;;;;;5054791;28;20231;-86
2021/09/19 02:20:27;;;;;;;4.87;2.30;;;12.80;1.00;;;;;;5056569;28;20178;-86
2021/09/19 02:22:52;;;;;;;3.97;2.40;;;12.80;1.00;;;;;;5048552;28;20304;-85
2021/09/19 02:25:18;;;;;;;2.60;2.40;;;14.20;1.00;;;;;;5044076;28;20540;-85
2021/09/19 02:27:44;;;;;;;4.83;2.43;;;12.70;1.00;;;;;;5054660;28;20204;-85
2021/09/19 02:30:13;;;;;;;2.47;2.27;;;12.70;1.00;;;;;;5058455;28;20192;-85
2021/09/19 02:32:39;;;;;;;2.57;2.37;;;12.70;1.00;;;;;;5051373;28;20264;-85
2021/09/19 02:35:07;;;;;;;3.27;2.17;;;12.80;1.00;;;;;;5058939;28;20222;-85
2021/09/19 02:37:38;;;;;;;2.40;2.20;;;12.70;1.00;;;;;;5057287;28;20196;-85
2021/09/19 02:40:06;;;;;;;2.57;2.37;;;12.70;1.00;;;;;;5070725;28;20665;-86
2021/09/19 02:42:32;;;;;;;3.13;2.20;;;12.70;1.00;;;;;;5055418;28;20194;-86
2021/09/19 02:44:58;;;;;;;3.10;2.63;;;12.70;1.00;;;;;;5068011;28;20216;-86
2021/09/19 02:47:24;;;;;;;2.37;2.17;;;12.70;1.00;;;;;;5053464;28;20210;-86
2021/09/19 02:49:49;;;;;;;3.27;2.57;;;12.70;1.00;;;;;;5050343;28;20216;-86
2021/09/19 02:52:15;;;;;;;2.57;1.90;;;;;;;;;;5045345;28;20178;-86
2021/09/19 02:54:41;;;;;;;2.57;2.37;;;;;;;;;;5069758;28;20200;-86
2021/09/19 02:57:07;;;;;;;2.50;2.07;;;12.60;1.00;;;;;;5053604;28;20832;-86
2021/09/19 02:59:33;;;;;;;2.93;2.50;;;12.90;1.00;;;;;;5057499;28;20193;-86
2021/09/19 03:01:58;;;;;;;2.30;2.13;;;12.50;1.00;;;;;;5067376;28;20348;-85
2021/09/19 03:04:24;;;;;;;3.47;2.33;;;;;;;;;;5049730;28;20225;-86
2021/09/19 03:06:50;;;;;;;4.30;2.33;;;12.50;1.00;;;;;;5050447;28;20190;-86
2021/09/19 03:09:15;;;;;;;2.70;2.50;;;12.70;1.00;;;;;;5071201;28;20287;-85
2021/09/19 03:11:41;;;;;;;2.50;2.30;;;;;;;;;;5054228;28;20185;-85
2021/09/19 03:14:07;;;;;;;2.33;2.13;;;12.40;1.00;;;;;;5056321;28;20607;-86
2021/09/19 03:16:32;;;;;;;2.70;2.47;;;12.40;1.00;;;;;;5059984;28;20310;-85
2021/09/19 03:18:58;;;;;;;2.27;2.07;;;12.50;1.00;;;;;;5058702;28;20201;-86
2021/09/19 03:21:24;;;;;;;3.23;2.60;;;12.40;1.00;;;;;;5053961;28;20190;-86
2021/09/19 03:23:50;;;;;;;4.70;2.97;;;15.20;1.00;;;;;;5055589;28;20222;-86
2021/09/19 03:26:15;;;;;;;4.20;2.50;;;12.40;1.00;;;;;;5053088;28;20200;-86
2021/09/19 03:28:41;;;;;;;3.93;2.87;;;12.40;1.00;;;;;;5056843;28;20278;-85
2021/09/19 03:31:06;;;;;;;3.00;2.60;;;12.40;1.00;;;;;;5059193;28;20232;-86
2021/09/19 03:33:32;;;;;;;3.20;2.57;;;12.40;1.00;;;;;;5063394;28;20185;-86
2021/09/19 03:35:58;;;;;;;3.13;2.33;;;;;;;;;;5056887;28;20555;-86
2021/09/19 03:38:24;;;;;;;3.67;2.63;;;12.40;1.00;;;;;;5060110;28;20551;-85
2021/09/19 03:40:49;;;;;;;2.97;2.37;;;12.30;1.00;;;;;;5053309;28;20191;-85
2021/09/19 03:43:15;;;;;;;2.70;2.47;;;12.30;1.00;;;;;;5052894;28;20264;-86
2021/09/19 03:45:41;;;;;;;2.63;2.43;;;;;;;;;;5072551;28;20544;-86
2021/09/19 03:48:08;;;;;;;2.93;2.63;;;12.20;1.00;;;;;;5065139;28;20189;-86
2021/09/19 03:50:34;;;;;;;2.90;2.63;;;12.20;1.00;;;;;;5053914;28;20186;-86
2021/09/19 03:53:00;;;;;;;2.63;2.43;;;;;;;;;;5069496;28;20200;-86
2021/09/19 03:55:27;;;;;;;2.83;2.53;;;;;;;;;;5079697;28;20190;-86
2021/09/19 03:57:52;;;;;;;3.00;2.70;;;12.20;1.00;;;;;;5054980;28;20190;-86
2021/09/19 04:00:19;;;;;;;2.43;2.23;;;12.40;1.00;;;;;;5051977;28;20198;-85
2021/09/19 04:02:45;;;;;;;2.70;2.50;;;;;;;;;;5057987;28;20199;-85
2021/09/19 04:05:11;;;;;;;3.87;2.63;;;12.20;1.00;;;;;;5051741;28;20650;-85
2021/09/19 04:07:38;;;;;;;2.60;2.40;;;12.10;1.00;;;;;;5072989;28;20201;-86
2021/09/19 04:10:06;;;;;;;3.10;2.50;;;12.10;1.00;;;;;;5072347;28;20302;-86
2021/09/19 04:12:33;;;;;;;2.90;2.70;;;12.10;1.00;;;;;;5057696;28;20202;-86
2021/09/19 04:14:58;;;;;;;3.33;2.47;;;12.10;1.00;;;;;;5061402;28;20183;-86
2021/09/19 04:17:25;;;;;;;2.13;1.80;;;;;;;;;;5046142;28;20276;-85
2021/09/19 04:19:51;;;;;;;2.90;2.70;;;;;;;;;;5049412;28;20245;-86
2021/09/19 04:22:17;;;;;;;3.37;2.70;;;;;;;;;;5059366;28;20295;-86
2021/09/19 04:24:43;;;;;;;2.63;2.43;;;12.00;1.00;;;;;;5043795;28;20214;-86
2021/09/19 04:27:10;;;;;;;3.63;2.90;;;;;;;;;;5054144;28;20208;-86
2021/09/19 04:29:35;;;;;;;2.80;2.60;;;12.00;1.00;;;;;;5047049;28;20250;-86
2021/09/19 04:32:03;;;;;;;2.70;2.50;;;12.00;1.00;;;;;;5052401;28;20217;-86
2021/09/19 04:34:29;;;;;;;2.40;2.20;;;;;;;;;;5067289;28;20183;-85
2021/09/19 04:36:55;;;;;;;2.87;2.63;;;;;;;;;;5053110;28;20195;-85
2021/09/19 04:39:20;;;;;;;2.80;2.60;;;11.90;1.00;;;;;;5039393;28;20227;-85
2021/09/19 04:41:46;;;;;;;3.23;2.67;;;12.00;1.00;;;;;;5045176;28;20192;-86
2021/09/19 04:44:11;;;;;;;3.30;3.00;;;11.90;1.00;;;;;;5068401;28;20689;-86
2021/09/19 04:46:37;;;;;;;3.30;2.87;;;11.90;1.00;;;;;;5059360;28;20193;-86
2021/09/19 04:49:03;;;;;;;3.57;2.70;;;11.90;1.00;;;;;;5047751;28;20187;-85
2021/09/19 04:51:29;;;;;;;3.73;2.97;;;11.90;1.00;;;;;;5061786;28;20195;-86
2021/09/19 04:53:54;;;;;;;3.03;2.73;;;11.90;1.00;;;;;;5057964;28;20183;-85
2021/09/19 04:56:20;;;;;;;3.17;2.83;;;11.80;1.00;;;;;;5070383;28;20190;-86
2021/09/19 04:58:46;;;;;;;3.17;2.87;;;11.90;1.00;;;;;;5060493;28;20222;-86
2021/09/19 05:01:12;;;;;;;3.23;2.93;;;;;;;;;;5058198;28;20185;-86
2021/09/19 05:03:38;;;;;;;4.37;2.97;;;11.80;1.00;;;;;;5050934;28;20616;-86
2021/09/19 05:06:03;;;;;;;2.80;2.60;;;11.80;1.00;;;;;;5079411;28;20189;-86
2021/09/19 05:08:29;;;;;;;3.60;2.67;;;11.70;1.00;;;;;;5048659;28;20220;-85
2021/09/19 05:10:55;;;;;;;3.33;3.03;;;11.70;1.00;;;;;;5047549;28;20199;-84
2021/09/19 05:13:21;;;;;;;2.97;2.77;;;;;;;;;;5059087;28;20187;-84
2021/09/19 05:15:47;;;;;;;5.27;2.87;;;11.70;1.00;;;;;;5056350;28;20205;-84
2021/09/19 05:18:13;;;;;;;3.87;2.90;;;;;;;;;;5065202;28;20193;-84
2021/09/19 05:20:38;;;;;;;3.27;2.90;;;11.70;1.00;;;;;;5050292;28;20250;-84
2021/09/19 05:23:04;;;;;;;3.53;3.23;;;12.00;1.00;;;;;;5053695;28;20246;-83
2021/09/19 05:25:30;;;;;;;3.43;3.07;;;11.80;1.00;;;;;;5044953;28;20734;-83
2021/09/19 05:27:55;;;;;;;3.30;2.80;;;11.80;1.00;;;;;;5060254;28;20532;-83
2021/09/19 05:30:21;;;;;;;3.17;2.87;;;11.80;1.00;;;;;;5057634;28;20239;-83
2021/09/19 05:32:48;;;;;;;5.33;3.17;;;;;;;;;;5062296;28;20185;-84
2021/09/19 05:35:14;;;;;;;3.27;2.97;;;;;;;;;;5060654;28;20240;-84
2021/09/19 05:37:40;;;;;;;3.27;2.97;;;;;;;;;;5079510;28;20271;-84
2021/09/19 05:40:08;;;;;;;4.03;3.47;;;11.90;1.00;;;;;;5063107;28;20192;-84
2021/09/19 05:42:34;;;;;;;3.17;2.87;;;12.00;1.00;;;;;;5068509;28;20205;-85
2021/09/19 05:45:00;;;;;;;5.60;3.17;;;12.00;1.00;;;;;;5075699;28;20209;-84
2021/09/19 05:47:26;;;;;;;3.57;3.07;;;12.20;1.00;;;;;;5054968;28;20214;-84
2021/09/19 05:49:51;;;;;;;4.00;3.17;;;12.00;1.00;;;;;;5054177;28;20201;-84
2021/09/19 05:52:17;;;;;;;3.47;3.00;;;;;;;;;;5058545;28;20566;-84
2021/09/19 05:54:44;;;;;;;3.20;2.90;;;;;;;;;;5063868;28;20669;-85
2021/09/19 05:57:09;;;;;;;4.40;3.53;;;;;;;;;;5063297;28;20213;-83
2021/09/19 05:59:35;;;;;;;3.47;3.17;;;12.20;1.00;;;;;;5054508;28;20190;-83
2021/09/19 06:02:01;;;;;;;3.57;3.27;;;12.40;1.00;;;;;;5058036;28;20228;-83
2021/09/19 06:04:26;;;;;;;4.03;3.23;;;12.40;1.00;;;;;;5050324;28;20247;-83
2021/09/19 06:06:52;;;;;;;3.50;3.00;;;12.50;1.00;;;;;;5051884;28;20186;-83
2021/09/19 06:09:18;;;;;;;4.00;3.33;;;12.50;1.00;;;;;;5061383;28;20268;-83
2021/09/19 06:11:43;;;;;;;3.57;3.27;;;12.70;1.00;;;;;;5061942;28;20280;-84
2021/09/19 06:14:10;;;;;;;3.63;3.30;;;12.80;1.00;;;;;;5063213;28;20187;-83
2021/09/19 06:16:36;;;;;;;4.67;3.83;;;12.70;1.00;;;;;;5064804;28;20215;-83
2021/09/19 06:19:03;;;;;;;3.90;3.43;;;;;;;;;;5063610;28;20193;-85
2021/09/19 06:21:29;;;;;;;3.90;3.17;;;;;;;;;;5052424;28;20217;-84
2021/09/19 06:23:54;;;;;;;3.20;2.90;;;13.00;1.00;;;;;;5045974;28;20244;-84
2021/09/19 06:26:20;;;;;;;3.70;3.30;;;13.00;1.00;;;;;;5064944;28;20189;-83
2021/09/19 06:28:45;;;;;;;3.70;3.40;;;13.10;1.00;;;;;;5064452;28;20193;-83
2021/09/19 06:31:12;;;;;;;3.87;2.90;;;;;;;;;;5062976;28;20276;-84
2021/09/19 06:33:38;;;;;;;4.10;2.90;;;13.30;1.00;;;;;;5060705;28;20699;-85
2021/09/19 06:36:04;;;;;;;4.67;3.37;;;14.40;1.00;;;;;;5042099;28;20194;-86
2021/09/19 06:38:30;;;;;;;3.53;3.20;;;13.50;1.00;;;;;;5049293;28;20196;-84
2021/09/19 06:40:56;;;;;;;4.53;2.83;;;;;;;;;;5050284;28;20190;-85
2021/09/19 06:43:22;;;;;;;4.03;2.93;;;13.50;1.00;;;;;;5076992;28;20262;-86
2021/09/19 06:45:47;;;;;;;3.83;3.30;;;13.60;1.00;;;;;;5053883;28;20186;-86
2021/09/19 06:48:13;;;;;;;3.57;2.67;;;13.60;1.00;;;;;;5059657;28;20180;-87
2021/09/19 06:50:39;;;;;;;4.47;3.30;;;13.70;1.00;;;;;;5049614;28;20668;-85
2021/09/19 06:53:05;;;;;;;3.33;2.80;;;13.90;1.00;;;;;;5050786;28;20211;-88
2021/09/19 06:55:31;;;;;;;3.47;3.17;;;13.90;1.00;;;;;;5052025;28;20674;-86
2021/09/19 06:57:57;;;;;;;4.23;2.50;;;13.90;1.00;;;;;;5061361;28;20186;-86
2021/09/19 07:00:23;;;;;;;3.93;3.13;;;14.10;1.00;;;;;;5060599;28;20201;-84
2021/09/19 07:02:49;;;;;;;4.13;3.30;;;14.10;1.00;;;;;;5056634;28;20197;-88
2021/09/19 07:05:15;;;;;;;3.90;2.90;;;;;;;;;;5048889;28;20210;-89
2021/09/19 07:07:41;;;;;;;2.53;2.33;;;;;;;;;;5053916;28;20187;-84
2021/09/19 07:10:07;;;;;;;3.13;2.83;;;14.30;1.00;;;;;;5059095;28;20254;-84
2021/09/19 07:12:32;;;;;;;3.23;2.93;;;14.30;1.00;;;;;;5061767;28;20197;-83
2021/09/19 07:14:58;;;;;;;4.30;3.13;;;14.40;1.00;;;;;;5076406;28;20171;-86
2021/09/19 07:17:24;;;;;;;3.80;3.27;;;;;;;;;;5054347;28;20199;-85
2021/09/19 07:19:49;;;;;;;3.50;2.73;;;14.60;1.00;;;;;;5061129;28;20182;-85
2021/09/19 07:22:15;;;;;;;3.47;2.80;;;14.00;1.00;;;;;;5051271;28;20237;-85
2021/09/19 07:24:41;;;;;;;3.47;2.63;;;14.70;1.00;;;;;;5065374;28;20258;-85
2021/09/19 07:27:07;;;;;;;4.00;3.60;;;;;;;;;;5057388;28;20263;-86
2021/09/19 07:29:33;;;;;;;3.83;3.30;;;14.70;1.00;;;;;;5054943;28;20179;-85
2021/09/19 07:32:01;;;;;;;2.87;2.60;;;14.70;1.00;;;;;;5053864;28;20189;-85
2021/09/19 07:34:29;;;;;;;3.27;2.97;;;14.70;1.00;;;;;;5057451;28;20226;-88
2021/09/19 07:36:55;;;;;;;3.40;3.10;;;14.80;1.00;;;;;;5060157;28;20194;-85
2021/09/19 07:39:21;;;;;;;4.87;3.33;;;14.90;1.00;;;;;;5054422;28;20196;-85
2021/09/19 07:41:48;;;;;;;3.13;2.87;;;;;;;;;;5057906;28;20229;-85
2021/09/19 07:44:15;;;;;;;3.63;3.07;;;;;;;;;;5075296;28;20324;-85
2021/09/19 07:46:41;;;;;;;3.33;3.10;;;15.40;1.00;;;;;;5061734;28;20194;-85
2021/09/19 07:49:07;;;;;;;3.10;2.80;;;15.60;1.00;;;;;;5059484;28;20216;-85
2021/09/19 07:51:33;;;;;;;6.63;2.73;;;15.70;1.00;;;;;;5060640;28;20201;-85
2021/09/19 07:53:59;;;;;;;3.50;3.20;;;15.70;1.00;;;;;;5060051;28;20221;-84
2021/09/19 07:56:24;;;;;;;3.00;2.70;;;15.70;1.00;;;;;;5064922;28;20254;-85
2021/09/19 07:58:50;;;;;;;3.40;3.10;;;15.70;1.00;;;;;;5050472;28;20575;-86
2021/09/19 08:01:17;;;;;;;3.10;2.80;;;15.60;1.00;;;;;;5060116;28;20193;-85
2021/09/19 08:03:42;;;;;;;3.80;3.50;;;16.00;1.00;;;;;;5062941;28;20217;-85
2021/09/19 08:06:08;;;;;;;4.50;2.90;;;16.10;1.00;;;;;;5061203;28;20196;-84
2021/09/19 08:08:34;;;;;;;3.47;3.17;;;;;;;;;;5075065;28;20190;-86
2021/09/19 08:11:00;;;;;;;3.40;3.10;;;;;;;;;;5043431;28;20212;-85
2021/09/19 08:35:14;;;;;;;2.80;2.60;;;17.40;1.00;;;;;;6328202;22;20552;-84
2021/09/19 08:37:40;;;;;;;3.17;2.83;;;17.30;1.00;;;;;;6349240;22;20221;-87
2021/09/19 08:40:09;;;;;;;3.00;2.80;;;17.30;1.00;;;;;;6295336;22;20160;-85
2021/09/19 08:42:38;;;;;;;2.90;2.70;;;17.30;1.00;;;;;;6295984;22;20184;-91
2021/09/19 08:45:06;;;;;;;3.30;2.60;;;17.40;1.00;;;;;;6304756;22;20167;-88
2021/09/19 08:47:31;;;;;;;2.73;2.53;;;17.60;1.00;;;;;;6295836;22;20170;-86
2021/09/19 08:49:58;;;;;;;4.77;2.77;;;17.60;1.00;;;;;;6295438;22;20164;-85
2021/09/19 08:52:24;;;;;;;4.83;3.00;;;17.60;1.00;;;;;;6295650;22;20198;-86
2021/09/19 08:54:49;;;;;;;2.80;2.60;;;17.60;1.00;;;;;;6324147;22;20179;-85
2021/09/19 08:57:16;;;;;;;3.30;2.83;;;17.80;1.00;;;;;;6294769;22;20161;-84
2021/09/19 08:59:47;;;;;;;2.67;2.47;;;17.80;1.00;;;;;;6296337;22;20162;-85
2021/09/19 09:02:14;;;;;;;3.53;3.03;;;17.80;1.00;;;;;;6296154;22;20151;-84
2021/09/19 09:04:41;;;;;;;3.00;2.77;;;18.10;1.00;;;;;;6297576;22;20189;-84
2021/09/19 09:07:07;;;;;;;3.40;3.10;;;18.20;1.00;;;;;;6295193;22;20239;-84
2021/09/19 09:09:32;;;;;;;3.33;3.03;;;18.30;1.00;;;;;;6325126;22;20151;-84
2021/09/19 09:12:00;;;;;;;3.33;2.90;;;18.20;1.00;;;;;;6296765;22;20159;-84
2021/09/19 09:14:26;;;;;;;2.83;2.53;;;18.10;1.00;;;;;;6295742;22;20214;-84
2021/09/19 09:16:52;;;;;;;2.47;2.23;;;;;;;;;;6328460;22;20157;-82
2021/09/19 09:19:18;;;;;;;3.43;3.10;;;17.50;1.00;;;;;;6296566;22;20597;-85
2021/09/19 09:21:43;;;;;;;3.13;2.83;;;17.60;1.00;;;;;;6325573;22;20153;-83
2021/09/19 09:24:15;;;;;;;3.73;2.90;;;17.50;1.00;;;;;;6299381;22;20188;-85
2021/09/19 09:26:42;;;;;;;3.07;2.80;;;17.80;1.00;;;;;;6298443;22;20659;-83
2021/09/19 09:29:15;;;;;;;3.00;2.70;;;18.00;1.00;;;;;;6297366;22;20164;-84
2021/09/19 09:31:47;;;;;;;2.97;2.77;;;18.20;1.00;;;;;;6296891;22;20160;-82
2021/09/19 09:34:14;;;;;;;4.80;3.07;;;18.20;1.00;;;;;;6310068;22;20187;-83
2021/09/19 09:37:09;;;;;;;2.90;2.70;;;18.40;1.00;;;;;;6316221;22;20174;-83
2021/09/19 09:39:45;;;;;;;5.17;2.67;;;18.60;1.00;;;;;;6290930;22;20304;-83
2021/09/19 09:42:19;;;;;;;3.17;2.87;;;18.50;1.00;;;;;;6318263;22;20167;-81
2021/09/19 09:44:46;;;;;;;3.07;2.70;;;18.70;1.00;;;;;;6320283;22;20173;-83
2021/09/19 09:47:16;;;;;;;2.93;2.63;;;18.80;1.00;;;;;;6321224;22;20311;-83
2021/09/19 09:49:46;;;;;;;2.90;2.70;;;18.80;1.00;;;;;;6316845;22;20177;-83
2021/09/19 09:52:17;;;;;;;6.03;3.03;;;18.80;1.00;;;;;;6318113;22;20418;-83
2021/09/19 09:54:47;;;;;;;2.90;2.50;;;18.80;1.00;;;;;;6319021;22;20151;-84
2021/09/19 09:57:19;;;;;;;3.50;2.90;;;19.40;1.00;;;;;;6316698;22;20166;-82
2021/09/19 09:59:44;;;;;;;2.90;2.70;;;19.10;1.00;;;;;;6323857;22;20224;-83
2021/09/19 10:02:13;;;;;;;3.57;2.93;;;19.70;1.00;;;;;;6325104;22;20186;-81
2021/09/19 10:04:39;;;;;;;3.03;2.73;;;;;;;;;;6318783;22;20195;-86
2021/09/19 10:07:05;;;;;;;3.00;2.70;;;;;;;;;;6316239;22;20158;-83
2021/09/19 10:09:31;;;;;;;2.77;2.40;;;19.40;1.00;;;;;;6320425;22;20163;-82
2021/09/19 10:11:58;;;;;;;3.43;3.13;;;;;;;;;;6318834;22;20218;-83
2021/09/19 10:14:24;;;;;;;4.80;2.70;;;19.20;1.00;;;;;;6316302;22;20182;-80
2021/09/19 10:16:49;;;;;;;3.20;2.70;;;19.20;1.00;;;;;;6317025;22;20167;-80
2021/09/19 10:19:20;;;;;;;3.33;2.53;;;19.40;1.00;;;;;;6322470;22;20216;-80
2021/09/19 10:21:47;;;;;;;3.00;2.50;;;19.60;1.00;;;;;;6318455;22;20160;-80
2021/09/19 10:24:14;;;;;;;3.43;2.80;;;19.60;1.00;;;;;;6318693;22;20647;-80
2021/09/19 10:26:54;;;;;;;4.33;2.87;;;19.80;1.00;;;;;;6320406;22;20159;-80
2021/09/19 10:29:21;;;;;;;3.10;2.80;;;20.00;1.00;;;;;;6321451;22;20165;-80
2021/09/19 10:31:47;;;;;;;2.80;2.60;;;;;;;;;;6319129;22;20207;-81
2021/09/19 10:34:28;;;;;;;4.03;2.77;;;19.80;1.00;;;;;;6321562;22;20231;-80
2021/09/19 10:36:59;;;;;;;5.67;3.40;;;19.70;1.00;;;;;;6321633;22;20201;-81
2021/09/19 10:39:41;;;;;;;2.93;2.63;;;19.80;1.00;;;;;;6316237;22;20180;-81
2021/09/19 10:42:21;;;;;;;4.10;3.00;;;19.70;1.00;;;;;;6319552;22;20183;-81
2021/09/19 10:44:49;;;;;;;2.60;2.40;;;19.70;1.00;;;;;;6317467;22;20222;-81
2021/09/19 10:47:30;;;;;;;4.67;2.77;;;19.40;1.00;;;;;;6316705;22;20163;-79
2021/09/19 10:50:22;;;;;;;3.40;3.10;;;19.00;1.00;;;;;;6319825;22;20292;-81
2021/09/19 10:52:53;;;;;;;4.37;2.57;;;18.80;1.00;;;;;;6317042;22;20393;-80
2021/09/19 10:55:33;;;;;;;4.70;2.60;;;18.60;1.00;;;;;;6315599;22;20456;-83
2021/09/19 10:58:03;;;;;;;4.47;3.03;;;18.60;1.00;;;;;;6319988;22;20141;-85
2021/09/19 11:00:34;;;;;;;3.20;2.87;;;18.70;1.00;;;;;;6319312;22;20173;-82
2021/09/19 11:03:26;;;;;;;2.70;2.50;;;18.50;1.00;;;;;;6318249;22;20267;-84
2021/09/19 11:05:52;;;;;;;2.90;2.60;;;18.50;1.00;;;;;;6317952;22;20150;-80
2021/09/19 11:08:21;;;;;;;3.00;2.80;;;18.60;1.00;;;;;;6319086;22;20543;-80
2021/09/19 11:10:50;;;;;;;3.20;2.90;;;18.90;1.00;;;;;;6320027;22;20163;-81
2021/09/19 11:13:45;;;;;;;4.90;3.33;;;19.00;1.00;;;;;;6317566;22;20194;-84
2021/09/19 11:16:30;;;;;;;3.43;2.90;;;19.10;1.00;;;;;;6321540;22;20145;-82
2021/09/19 11:19:01;;;;;;;3.53;3.20;;;19.10;1.00;;;;;;6320355;22;20162;-81
2021/09/19 11:21:26;;;;;;;4.17;2.90;;;19.10;1.00;;;;;;6320475;22;20171;-82
2021/09/19 11:24:12;;;;;;;2.77;2.57;;;18.80;1.00;;;;;;6318243;22;20173;-82
2021/09/19 11:26:47;;;;;;;3.20;2.90;;;18.70;1.00;;;;;;6314856;22;20153;-82
2021/09/19 11:29:16;;;;;;;3.10;2.60;;;18.70;1.00;;;;;;6315930;22;20170;-84
2021/09/19 11:31:43;;;;;;;3.30;3.00;;;18.90;1.00;;;;;;6313029;22;20484;-83
2021/09/19 11:34:17;;;;;;;4.33;2.70;;;18.80;1.00;;;;;;6314939;22;20205;-84
2021/09/19 11:36:54;;;;;;;3.10;2.90;;;19.00;1.00;;;;;;6317113;22;20158;-84
2021/09/19 11:39:20;;;;;;;3.37;2.63;;;19.70;1.00;;;;;;6319145;22;20156;-86
2021/09/19 11:41:47;;;;;;;2.87;2.67;;;19.70;1.00;;;;;;6316150;22;20256;-85
2021/09/19 11:44:15;;;;;;;3.47;3.17;;;20.00;1.00;;;;;;6316856;22;20177;-85
2021/09/19 11:46:43;;;;;;;4.23;2.80;;;19.80;1.00;;;;;;6314731;22;20157;-81
2021/09/19 11:49:09;;;;;;;5.00;2.97;;;;;;;;;;6321764;22;20159;-84
2021/09/19 11:51:35;;;;;;;4.10;2.83;;;;;;;;;;6316676;22;20167;-86
2021/09/19 11:54:01;;;;;;;4.83;3.10;;;;;;;;;;6315298;22;20606;-86
2021/09/19 11:56:28;;;;;;;3.40;3.10;;;19.70;1.00;;;;;;6318191;22;20205;-84
2021/09/19 11:58:54;;;;;;;4.07;3.20;;;19.70;1.00;;;;;;6316984;22;20226;-85
2021/09/19 12:01:28;;;;;;;2.90;2.70;;;19.70;1.00;;;;;;6316551;22;20171;-83
2021/09/19 12:04:03;;;;;;;4.93;2.87;;;19.50;1.00;;;;;;6318065;22;20223;-80
2021/09/19 12:06:30;;;;;;;4.03;2.73;;;;;;;;;;6320162;22;20353;-80
2021/09/19 12:08:56;;;;;;;3.47;3.17;;;19.40;1.00;;;;;;6317177;22;20179;-80
2021/09/19 12:11:37;;;;;;;4.10;2.90;;;19.50;1.00;;;;;;6314435;22;20160;-84
2021/09/19 12:14:14;;;;;;;3.10;2.80;;;19.60;1.00;;;;;;6286033;22;20153;-84
2021/09/19 12:16:40;;;;;;;2.70;2.47;;;19.60;1.00;;;;;;6314152;22;20165;-84
2021/09/19 12:19:19;;;;;;;2.63;2.43;;;19.60;1.00;;;;;;6314670;22;20168;-85
2021/09/19 12:22:12;;;;;;;4.70;3.10;;;19.70;1.00;;;;;;6315085;22;20164;-86
2021/09/19 12:24:39;;;;;;;3.70;2.50;;;;;;;;;;6275406;22;20204;-84
2021/09/19 12:27:09;;;;;;;3.43;2.83;;;19.70;1.00;;;;;;6313805;22;20251;-82
2021/09/19 12:29:35;;;;;;;4.43;2.70;;;;;;;;;;6312204;22;20168;-82
2021/09/19 12:32:02;;;;;;;4.07;3.47;;;19.80;1.00;;;;;;6312845;22;20182;-83
2021/09/19 12:34:27;;;;;;;2.77;2.57;;;19.80;1.00;;;;;;6316663;22;20213;-83
2021/09/19 12:36:55;;;;;;;2.73;2.53;;;19.80;1.00;;;;;;6320368;22;20161;-82
2021/09/19 12:39:25;;;;;;;3.47;2.77;;;19.80;1.00;;;;;;6310739;22;20171;-84
2021/09/19 12:41:57;;;;;;;2.70;2.50;;;19.60;1.00;;;;;;6315932;22;20156;-84
2021/09/19 12:44:29;;;;;;;2.57;2.37;;;19.70;1.00;;;;;;6315106;22;20616;-88
2021/09/19 12:47:01;;;;;;;2.63;2.43;;;19.50;1.00;;;;;;6315023;22;20164;-84
2021/09/19 12:49:31;;;;;;;2.83;2.60;;;19.50;1.00;;;;;;6314788;22;20147;-84
2021/09/19 12:52:17;;;;;;;3.20;2.90;;;19.30;1.00;;;;;;6313967;22;20161;-84
2021/09/19 12:54:47;;;;;;;3.17;2.87;;;19.40;1.00;;;;;;6315123;22;20170;-85
2021/09/19 12:57:13;;;;;;;2.80;2.60;;;19.50;1.00;;;;;;6315570;22;20167;-86
2021/09/19 12:59:39;;;;;;;2.70;2.50;;;;;;;;;;6314682;22;20160;-86
2021/09/19 13:02:05;;;;;;;2.53;2.33;;;19.70;1.00;;;;;;6312793;22;20189;-89
2021/09/19 13:04:31;;;;;;;3.30;2.77;;;19.60;1.00;;;;;;6313338;22;20195;-85
2021/09/19 13:06:57;;;;;;;3.33;2.57;;;19.50;1.00;;;;;;6315662;22;20167;-89
2021/09/19 13:09:22;;;;;;;2.50;2.30;;;19.70;1.00;;;;;;6315018;22;20201;-85
2021/09/19 13:11:48;;;;;;;2.47;2.27;;;19.80;1.00;;;;;;6317440;22;20643;-81
2021/09/19 13:14:13;;;;;;;2.87;2.60;;;20.00;1.00;;;;;;6323087;22;20248;-80
2021/09/19 13:16:40;;;;;;;2.63;2.20;;;20.10;1.00;;;;;;6323921;22;20275;-80
2021/09/19 13:19:10;;;;;;;2.87;2.23;;;20.00;1.00;;;;;;6323785;22;20504;-80
2021/09/19 13:21:35;;;;;;;2.57;2.37;;;19.90;1.00;;;;;;6322277;22;20500;-81
2021/09/19 13:24:06;;;;;;;2.57;2.37;;;19.90;1.00;;;;;;6319866;22;20183;-80
2021/09/19 13:26:34;;;;;;;3.00;2.70;;;19.70;1.00;;;;;;6321876;22;20590;-82
2021/09/19 13:29:01;;;;;;;2.60;2.40;;;19.60;1.00;;;;;;6319878;22;20160;-81
2021/09/19 13:31:27;;;;;;;2.97;2.67;;;;;;;;;;6322038;22;20157;-82
2021/09/19 13:33:53;;;;;;;2.63;2.27;;;19.70;1.00;;;;;;6319548;22;20293;-83
2021/09/19 13:36:19;;;;;;;2.47;2.27;;;19.70;1.00;;;;;;6319139;22;20167;-82
2021/09/19 13:38:44;;;;;;;2.60;2.33;;;19.70;1.00;;;;;;6318673;22;20171;-82